sensor_id;sensor_type;location;lat;lon;timestamp;P1;durP1;ratioP1;P2;durP2;ratioP2
50301;SDS011;36550;50.472;19.744;2023-02-26T00:00:41;7.20;;;3.70;;
50301;SDS011;36550;50.472;19.744;2023-02-26T00:04:05;6.60;;;3.00;;
50301;SDS011;36550;50.472;19.744;2023-02-26T00:07:29;9.40;;;3.80;;
50301;SDS011;36550;50.472;19.744;2023-02-26T00:10:55;7.30;;;3.50;;
50301;SDS011;36550;50.472;19.744;2023-02-26T00:14:20;6.50;;;3.00;;
50301;SDS011;36550;50.472;19.744;2023-02-26T00:18:00;7.10;;;3.50;;
50301;SDS011;36550;50.472;19.744;2023-02-26T00:21:29;7.30;;;2.90;;
50301;SDS011;36550;50.472;19.744;2023-02-26T00:24:14;6.70;;;3.10;;
50301;SDS011;36550;50.472;19.744;2023-02-26T00:26:59;6.20;;;2.80;;
50301;SDS011;36550;50.472;19.744;2023-02-26T00:29:43;7.00;;;2.80;;
50301;SDS011;36550;50.472;19.744;2023-02-26T00:32:28;7.30;;;2.90;;
50301;SDS011;36550;50.472;19.744;2023-02-26T00:36:04;6.20;;;2.90;;
50301;SDS011;36550;50.472;19.744;2023-02-26T00:39:29;6.10;;;3.10;;
50301;SDS011;36550;50.472;19.744;2023-02-26T00:42:43;4.80;;;3.00;;
50301;SDS011;36550;50.472;19.744;2023-02-26T00:52:48;6.70;;;3.10;;
50301;SDS011;36550;50.472;19.744;2023-02-26T00:56:09;4.90;;;3.00;;
50301;SDS011;36550;50.472;19.744;2023-02-26T00:59:40;5.70;;;2.80;;
50301;SDS011;36550;50.472;19.744;2023-02-26T01:02:24;5.90;;;2.70;;
50301;SDS011;36550;50.472;19.744;2023-02-26T01:05:52;5.60;;;3.00;;
50301;SDS011;36550;50.472;19.744;2023-02-26T01:09:36;7.10;;;3.30;;
50301;SDS011;36550;50.472;19.744;2023-02-26T01:13:01;5.00;;;3.20;;
50301;SDS011;36550;50.472;19.744;2023-02-26T01:16:11;6.20;;;3.20;;
50301;SDS011;36550;50.472;19.744;2023-02-26T01:19:40;7.00;;;2.80;;
50301;SDS011;36550;50.472;19.744;2023-02-26T01:22:56;6.30;;;2.70;;
50301;SDS011;36550;50.472;19.744;2023-02-26T01:26:37;5.90;;;3.00;;
50301;SDS011;36550;50.472;19.744;2023-02-26T01:29:45;5.50;;;2.60;;
50301;SDS011;36550;50.472;19.744;2023-02-26T01:32:37;6.20;;;2.60;;
50301;SDS011;36550;50.472;19.744;2023-02-26T01:36:02;5.40;;;2.70;;
50301;SDS011;36550;50.472;19.744;2023-02-26T01:39:48;6.30;;;2.90;;
50301;SDS011;36550;50.472;19.744;2023-02-26T01:43:09;4.80;;;2.50;;
50301;SDS011;36550;50.472;19.744;2023-02-26T01:50:13;4.80;;;2.40;;
50301;SDS011;36550;50.472;19.744;2023-02-26T01:53:20;5.70;;;2.50;;
50301;SDS011;36550;50.472;19.744;2023-02-26T01:56:28;5.60;;;3.00;;
50301;SDS011;36550;50.472;19.744;2023-02-26T01:59:18;5.20;;;2.60;;
50301;SDS011;36550;50.472;19.744;2023-02-26T02:02:46;5.80;;;2.70;;
50301;SDS011;36550;50.472;19.744;2023-02-26T02:06:30;5.40;;;2.60;;
50301;SDS011;36550;50.472;19.744;2023-02-26T02:10:13;4.60;;;2.70;;
50301;SDS011;36550;50.472;19.744;2023-02-26T02:16:36;6.90;;;3.00;;
50301;SDS011;36550;50.472;19.744;2023-02-26T02:20:11;5.30;;;2.90;;
50301;SDS011;36550;50.472;19.744;2023-02-26T02:35:53;5.30;;;2.60;;
50301;SDS011;36550;50.472;19.744;2023-02-26T02:40:13;4.40;;;2.30;;
50301;SDS011;36550;50.472;19.744;2023-02-26T02:43:03;6.90;;;2.40;;
50301;SDS011;36550;50.472;19.744;2023-02-26T02:46:29;5.80;;;2.70;;
50301;SDS011;36550;50.472;19.744;2023-02-26T02:50:10;5.20;;;2.90;;
50301;SDS011;36550;50.472;19.744;2023-02-26T02:53:09;6.00;;;2.60;;
50301;SDS011;36550;50.472;19.744;2023-02-26T02:59:45;8.00;;;3.10;;
50301;SDS011;36550;50.472;19.744;2023-02-26T03:06:32;7.10;;;2.80;;
50301;SDS011;36550;50.472;19.744;2023-02-26T03:09:56;8.80;;;2.60;;
50301;SDS011;36550;50.472;19.744;2023-02-26T03:13:00;7.00;;;2.40;;
50301;SDS011;36550;50.472;19.744;2023-02-26T03:16:12;5.80;;;2.90;;
50301;SDS011;36550;50.472;19.744;2023-02-26T03:22:45;6.00;;;2.90;;
50301;SDS011;36550;50.472;19.744;2023-02-26T03:26:47;7.90;;;2.90;;
50301;SDS011;36550;50.472;19.744;2023-02-26T03:29:52;6.10;;;2.90;;
50301;SDS011;36550;50.472;19.744;2023-02-26T03:40:03;5.70;;;2.70;;
50301;SDS011;36550;50.472;19.744;2023-02-26T03:43:17;8.00;;;2.80;;
50301;SDS011;36550;50.472;19.744;2023-02-26T03:47:15;7.20;;;2.90;;
50301;SDS011;36550;50.472;19.744;2023-02-26T03:50:47;6.90;;;2.70;;
50301;SDS011;36550;50.472;19.744;2023-02-26T03:54:00;5.30;;;2.90;;
50301;SDS011;36550;50.472;19.744;2023-02-26T03:57:25;7.10;;;2.50;;
50301;SDS011;36550;50.472;19.744;2023-02-26T04:00:18;4.70;;;2.60;;
50301;SDS011;36550;50.472;19.744;2023-02-26T04:06:30;5.80;;;2.60;;
50301;SDS011;36550;50.472;19.744;2023-02-26T04:10:01;6.50;;;2.90;;
50301;SDS011;36550;50.472;19.744;2023-02-26T04:12:46;8.60;;;2.30;;
50301;SDS011;36550;50.472;19.744;2023-02-26T04:16:30;6.30;;;2.00;;
50301;SDS011;36550;50.472;19.744;2023-02-26T04:19:35;4.50;;;2.20;;
50301;SDS011;36550;50.472;19.744;2023-02-26T04:22:54;5.60;;;2.30;;
50301;SDS011;36550;50.472;19.744;2023-02-26T04:26:12;4.70;;;2.50;;
50301;SDS011;36550;50.472;19.744;2023-02-26T04:28:57;4.70;;;2.30;;
50301;SDS011;36550;50.472;19.744;2023-02-26T04:31:42;6.60;;;2.10;;
50301;SDS011;36550;50.472;19.744;2023-02-26T04:35:26;4.80;;;2.40;;
50301;SDS011;36550;50.472;19.744;2023-02-26T04:38:40;6.60;;;2.60;;
50301;SDS011;36550;50.472;19.744;2023-02-26T04:42:11;6.10;;;2.30;;
50301;SDS011;36550;50.472;19.744;2023-02-26T04:45:39;8.60;;;3.00;;
50301;SDS011;36550;50.472;19.744;2023-02-26T04:49:04;6.00;;;2.60;;
50301;SDS011;36550;50.472;19.744;2023-02-26T04:51:48;8.10;;;2.50;;
50301;SDS011;36550;50.472;19.744;2023-02-26T04:55:13;8.80;;;2.80;;
50301;SDS011;36550;50.472;19.744;2023-02-26T04:58:17;5.50;;;2.40;;
50301;SDS011;36550;50.472;19.744;2023-02-26T05:01:29;6.80;;;2.40;;
50301;SDS011;36550;50.472;19.744;2023-02-26T05:04:54;5.50;;;2.50;;
50301;SDS011;36550;50.472;19.744;2023-02-26T05:08:19;5.20;;;2.40;;
50301;SDS011;36550;50.472;19.744;2023-02-26T05:11:26;5.30;;;2.00;;
50301;SDS011;36550;50.472;19.744;2023-02-26T05:14:50;8.20;;;2.80;;
50301;SDS011;36550;50.472;19.744;2023-02-26T05:17:36;6.10;;;2.60;;
50301;SDS011;36550;50.472;19.744;2023-02-26T05:21:01;8.40;;;2.80;;
50301;SDS011;36550;50.472;19.744;2023-02-26T05:24:09;8.00;;;2.70;;
50301;SDS011;36550;50.472;19.744;2023-02-26T05:27:33;8.00;;;2.80;;
50301;SDS011;36550;50.472;19.744;2023-02-26T05:30:56;5.90;;;2.60;;
50301;SDS011;36550;50.472;19.744;2023-02-26T05:34:40;6.40;;;2.50;;
50301;SDS011;36550;50.472;19.744;2023-02-26T05:38:05;8.20;;;3.40;;
50301;SDS011;36550;50.472;19.744;2023-02-26T05:41:28;6.20;;;2.40;;
50301;SDS011;36550;50.472;19.744;2023-02-26T05:44:34;6.40;;;2.50;;
50301;SDS011;36550;50.472;19.744;2023-02-26T05:47:58;7.30;;;3.20;;
50301;SDS011;36550;50.472;19.744;2023-02-26T05:51:41;8.10;;;3.50;;
50301;SDS011;36550;50.472;19.744;2023-02-26T05:54:53;11.00;;;4.50;;
50301;SDS011;36550;50.472;19.744;2023-02-26T05:57:37;8.50;;;3.30;;
50301;SDS011;36550;50.472;19.744;2023-02-26T06:00:21;6.70;;;3.20;;
50301;SDS011;36550;50.472;19.744;2023-02-26T06:03:26;8.20;;;3.00;;
50301;SDS011;36550;50.472;19.744;2023-02-26T06:06:30;7.80;;;2.70;;
50301;SDS011;36550;50.472;19.744;2023-02-26T06:10:08;7.80;;;3.30;;
50301;SDS011;36550;50.472;19.744;2023-02-26T06:13:03;9.30;;;2.60;;
50301;SDS011;36550;50.472;19.744;2023-02-26T06:16:27;5.50;;;3.00;;
50301;SDS011;36550;50.472;19.744;2023-02-26T06:19:32;6.00;;;2.40;;
50301;SDS011;36550;50.472;19.744;2023-02-26T06:22:59;4.90;;;2.60;;
50301;SDS011;36550;50.472;19.744;2023-02-26T06:25:57;5.00;;;2.30;;
50301;SDS011;36550;50.472;19.744;2023-02-26T06:29:08;5.00;;;2.50;;
50301;SDS011;36550;50.472;19.744;2023-02-26T06:32:52;5.00;;;2.40;;
50301;SDS011;36550;50.472;19.744;2023-02-26T06:36:16;7.50;;;2.20;;
50301;SDS011;36550;50.472;19.744;2023-02-26T06:39:40;4.00;;;2.00;;
50301;SDS011;36550;50.472;19.744;2023-02-26T06:43:00;5.30;;;2.30;;
50301;SDS011;36550;50.472;19.744;2023-02-26T06:46:23;5.80;;;2.80;;
50301;SDS011;36550;50.472;19.744;2023-02-26T06:49:25;6.40;;;2.20;;
50301;SDS011;36550;50.472;19.744;2023-02-26T06:52:49;5.30;;;2.20;;
50301;SDS011;36550;50.472;19.744;2023-02-26T06:55:50;7.10;;;2.30;;
50301;SDS011;36550;50.472;19.744;2023-02-26T06:58:55;5.70;;;2.40;;
50301;SDS011;36550;50.472;19.744;2023-02-26T07:01:59;4.90;;;2.10;;
50301;SDS011;36550;50.472;19.744;2023-02-26T07:05:28;4.40;;;2.10;;
50301;SDS011;36550;50.472;19.744;2023-02-26T07:09:12;7.20;;;2.80;;
50301;SDS011;36550;50.472;19.744;2023-02-26T07:12:30;5.30;;;2.30;;
50301;SDS011;36550;50.472;19.744;2023-02-26T07:15:49;10.70;;;2.60;;
50301;SDS011;36550;50.472;19.744;2023-02-26T07:18:56;13.70;;;3.50;;
50301;SDS011;36550;50.472;19.744;2023-02-26T07:22:07;9.20;;;3.00;;
50301;SDS011;36550;50.472;19.744;2023-02-26T07:25:31;9.00;;;3.10;;
50301;SDS011;36550;50.472;19.744;2023-02-26T07:28:19;4.70;;;1.60;;
50301;SDS011;36550;50.472;19.744;2023-02-26T07:31:23;4.30;;;1.50;;
50301;SDS011;36550;50.472;19.744;2023-02-26T07:35:07;5.10;;;1.90;;
50301;SDS011;36550;50.472;19.744;2023-02-26T07:38:18;6.50;;;2.20;;
50301;SDS011;36550;50.472;19.744;2023-02-26T07:41:27;3.60;;;1.90;;
50301;SDS011;36550;50.472;19.744;2023-02-26T07:44:50;6.40;;;2.50;;
50301;SDS011;36550;50.472;19.744;2023-02-26T07:48:16;5.50;;;2.50;;
50301;SDS011;36550;50.472;19.744;2023-02-26T07:51:40;3.60;;;2.00;;
50301;SDS011;36550;50.472;19.744;2023-02-26T07:54:45;6.20;;;2.30;;
50301;SDS011;36550;50.472;19.744;2023-02-26T07:58:29;8.30;;;3.50;;
50301;SDS011;36550;50.472;19.744;2023-02-26T08:01:53;11.20;;;3.30;;
50301;SDS011;36550;50.472;19.744;2023-02-26T08:04:39;21.10;;;8.20;;
50301;SDS011;36550;50.472;19.744;2023-02-26T08:07:25;27.70;;;13.40;;
50301;SDS011;36550;50.472;19.744;2023-02-26T08:10:50;8.10;;;3.50;;
50301;SDS011;36550;50.472;19.744;2023-02-26T08:14:18;8.00;;;2.50;;
50301;SDS011;36550;50.472;19.744;2023-02-26T08:17:42;5.70;;;2.20;;
50301;SDS011;36550;50.472;19.744;2023-02-26T08:21:07;4.90;;;2.20;;
50301;SDS011;36550;50.472;19.744;2023-02-26T08:24:45;5.10;;;1.70;;
50301;SDS011;36550;50.472;19.744;2023-02-26T08:28:16;5.50;;;2.00;;
50301;SDS011;36550;50.472;19.744;2023-02-26T08:31:40;4.80;;;2.10;;
50301;SDS011;36550;50.472;19.744;2023-02-26T08:35:24;5.10;;;2.40;;
50301;SDS011;36550;50.472;19.744;2023-02-26T08:38:49;2.70;;;1.60;;
50301;SDS011;36550;50.472;19.744;2023-02-26T08:42:14;4.20;;;1.50;;
50301;SDS011;36550;50.472;19.744;2023-02-26T08:45:58;3.30;;;1.60;;
50301;SDS011;36550;50.472;19.744;2023-02-26T08:49:42;4.00;;;1.60;;
50301;SDS011;36550;50.472;19.744;2023-02-26T08:53:01;5.30;;;1.90;;
50301;SDS011;36550;50.472;19.744;2023-02-26T08:55:47;4.50;;;2.20;;
50301;SDS011;36550;50.472;19.744;2023-02-26T08:58:35;6.40;;;2.70;;
50301;SDS011;36550;50.472;19.744;2023-02-26T09:01:19;6.10;;;2.30;;
50301;SDS011;36550;50.472;19.744;2023-02-26T09:04:30;4.70;;;2.20;;
50301;SDS011;36550;50.472;19.744;2023-02-26T09:07:58;5.60;;;2.10;;
50301;SDS011;36550;50.472;19.744;2023-02-26T09:11:42;5.00;;;2.00;;
50301;SDS011;36550;50.472;19.744;2023-02-26T09:15:20;4.70;;;2.20;;
50301;SDS011;36550;50.472;19.744;2023-02-26T09:18:24;5.10;;;2.30;;
50301;SDS011;36550;50.472;19.744;2023-02-26T09:21:48;5.10;;;1.80;;
50301;SDS011;36550;50.472;19.744;2023-02-26T09:25:19;4.60;;;1.90;;
50301;SDS011;36550;50.472;19.744;2023-02-26T09:28:38;4.10;;;1.60;;
50301;SDS011;36550;50.472;19.744;2023-02-26T09:32:02;7.10;;;2.30;;
50301;SDS011;36550;50.472;19.744;2023-02-26T09:35:06;5.20;;;1.90;;
50301;SDS011;36550;50.472;19.744;2023-02-26T09:38:30;3.00;;;1.40;;
50301;SDS011;36550;50.472;19.744;2023-02-26T09:41:37;4.10;;;1.60;;
50301;SDS011;36550;50.472;19.744;2023-02-26T09:45:01;4.30;;;1.40;;
50301;SDS011;36550;50.472;19.744;2023-02-26T09:48:26;4.90;;;1.60;;
50301;SDS011;36550;50.472;19.744;2023-02-26T09:51:35;3.00;;;1.60;;
50301;SDS011;36550;50.472;19.744;2023-02-26T09:54:47;5.00;;;1.70;;
50301;SDS011;36550;50.472;19.744;2023-02-26T09:57:54;5.40;;;1.70;;
50301;SDS011;36550;50.472;19.744;2023-02-26T10:00:45;3.10;;;1.50;;
50301;SDS011;36550;50.472;19.744;2023-02-26T10:10:34;3.60;;;1.90;;
50301;SDS011;36550;50.472;19.744;2023-02-26T10:13:39;4.90;;;1.90;;
50301;SDS011;36550;50.472;19.744;2023-02-26T10:17:11;3.80;;;1.70;;
50301;SDS011;36550;50.472;19.744;2023-02-26T10:20:36;5.70;;;1.80;;
50301;SDS011;36550;50.472;19.744;2023-02-26T10:24:29;3.80;;;1.80;;
50301;SDS011;36550;50.472;19.744;2023-02-26T10:31:12;8.50;;;2.90;;
50301;SDS011;36550;50.472;19.744;2023-02-26T10:35:11;7.60;;;2.80;;
50301;SDS011;36550;50.472;19.744;2023-02-26T10:38:35;6.00;;;2.60;;
50301;SDS011;36550;50.472;19.744;2023-02-26T10:41:20;7.50;;;2.90;;
50301;SDS011;36550;50.472;19.744;2023-02-26T10:48:26;7.40;;;2.30;;
50301;SDS011;36550;50.472;19.744;2023-02-26T10:51:36;5.60;;;2.60;;
50301;SDS011;36550;50.472;19.744;2023-02-26T10:58:48;7.60;;;3.00;;
50301;SDS011;36550;50.472;19.744;2023-02-26T11:02:39;5.30;;;2.10;;
50301;SDS011;36550;50.472;19.744;2023-02-26T11:06:02;5.90;;;2.40;;
50301;SDS011;36550;50.472;19.744;2023-02-26T11:09:46;6.80;;;2.40;;
50301;SDS011;36550;50.472;19.744;2023-02-26T11:13:04;5.80;;;2.30;;
50301;SDS011;36550;50.472;19.744;2023-02-26T11:15:49;6.80;;;2.30;;
50301;SDS011;36550;50.472;19.744;2023-02-26T11:21:23;6.30;;;2.30;;
50301;SDS011;36550;50.472;19.744;2023-02-26T11:24:47;7.60;;;2.70;;
50301;SDS011;36550;50.472;19.744;2023-02-26T11:28:29;4.80;;;2.20;;
50301;SDS011;36550;50.472;19.744;2023-02-26T11:31:54;6.20;;;2.80;;
50301;SDS011;36550;50.472;19.744;2023-02-26T11:34:45;4.80;;;2.30;;
50301;SDS011;36550;50.472;19.744;2023-02-26T11:38:07;7.20;;;2.60;;
50301;SDS011;36550;50.472;19.744;2023-02-26T11:41:51;5.10;;;2.30;;
50301;SDS011;36550;50.472;19.744;2023-02-26T11:45:34;6.30;;;2.50;;
50301;SDS011;36550;50.472;19.744;2023-02-26T11:48:57;10.10;;;4.20;;
50301;SDS011;36550;50.472;19.744;2023-02-26T11:52:33;5.00;;;2.40;;
50301;SDS011;36550;50.472;19.744;2023-02-26T11:56:01;3.70;;;1.60;;
50301;SDS011;36550;50.472;19.744;2023-02-26T11:59:33;3.40;;;1.70;;
50301;SDS011;36550;50.472;19.744;2023-02-26T12:03:03;4.30;;;1.80;;
50301;SDS011;36550;50.472;19.744;2023-02-26T12:06:44;5.40;;;1.80;;
50301;SDS011;36550;50.472;19.744;2023-02-26T12:10:18;6.10;;;2.10;;
50301;SDS011;36550;50.472;19.744;2023-02-26T12:13:16;4.50;;;1.70;;
50301;SDS011;36550;50.472;19.744;2023-02-26T12:19:35;4.00;;;1.90;;
50301;SDS011;36550;50.472;19.744;2023-02-26T12:23:19;5.00;;;2.10;;
50301;SDS011;36550;50.472;19.744;2023-02-26T12:26:55;6.70;;;2.10;;
50301;SDS011;36550;50.472;19.744;2023-02-26T12:30:07;5.00;;;2.20;;
50301;SDS011;36550;50.472;19.744;2023-02-26T12:46:51;4.60;;;2.70;;
50301;SDS011;36550;50.472;19.744;2023-02-26T12:50:18;5.50;;;2.30;;
50301;SDS011;36550;50.472;19.744;2023-02-26T12:56:45;4.10;;;2.00;;
50301;SDS011;36550;50.472;19.744;2023-02-26T13:03:40;6.60;;;2.60;;
50301;SDS011;36550;50.472;19.744;2023-02-26T13:09:51;6.70;;;2.20;;
50301;SDS011;36550;50.472;19.744;2023-02-26T13:13:28;3.90;;;2.10;;
50301;SDS011;36550;50.472;19.744;2023-02-26T13:18:05;5.00;;;2.30;;
50301;SDS011;36550;50.472;19.744;2023-02-26T13:21:17;6.50;;;2.60;;
50301;SDS011;36550;50.472;19.744;2023-02-26T13:24:53;5.80;;;2.50;;
50301;SDS011;36550;50.472;19.744;2023-02-26T13:28:18;6.60;;;2.50;;
50301;SDS011;36550;50.472;19.744;2023-02-26T13:31:34;4.60;;;2.40;;
50301;SDS011;36550;50.472;19.744;2023-02-26T13:34:54;6.00;;;2.50;;
50301;SDS011;36550;50.472;19.744;2023-02-26T13:38:00;6.20;;;2.70;;
50301;SDS011;36550;50.472;19.744;2023-02-26T13:41:11;5.40;;;1.90;;
50301;SDS011;36550;50.472;19.744;2023-02-26T13:48:29;6.10;;;2.10;;
50301;SDS011;36550;50.472;19.744;2023-02-26T13:51:42;5.60;;;2.20;;
50301;SDS011;36550;50.472;19.744;2023-02-26T13:55:41;4.10;;;2.30;;
50301;SDS011;36550;50.472;19.744;2023-02-26T13:59:04;10.20;;;3.20;;
50301;SDS011;36550;50.472;19.744;2023-02-26T14:08:55;8.40;;;2.90;;
50301;SDS011;36550;50.472;19.744;2023-02-26T14:22:01;11.30;;;3.50;;
50301;SDS011;36550;50.472;19.744;2023-02-26T14:25:40;7.40;;;3.00;;
50301;SDS011;36550;50.472;19.744;2023-02-26T14:29:13;8.10;;;2.90;;
50301;SDS011;36550;50.472;19.744;2023-02-26T14:32:31;6.40;;;3.30;;
50301;SDS011;36550;50.472;19.744;2023-02-26T14:35:50;11.30;;;3.90;;
50301;SDS011;36550;50.472;19.744;2023-02-26T14:39:35;7.30;;;2.70;;
50301;SDS011;36550;50.472;19.744;2023-02-26T14:43:05;5.40;;;2.70;;
50301;SDS011;36550;50.472;19.744;2023-02-26T14:46:30;6.70;;;2.90;;
50301;SDS011;36550;50.472;19.744;2023-02-26T14:50:16;5.50;;;2.70;;
50301;SDS011;36550;50.472;19.744;2023-02-26T14:57:00;6.20;;;3.00;;
50301;SDS011;36550;50.472;19.744;2023-02-26T15:03:16;9.60;;;2.70;;
50301;SDS011;36550;50.472;19.744;2023-02-26T15:10:21;9.50;;;3.40;;
50301;SDS011;36550;50.472;19.744;2023-02-26T15:14:05;6.70;;;2.90;;
50301;SDS011;36550;50.472;19.744;2023-02-26T15:23:17;6.30;;;3.00;;
50301;SDS011;36550;50.472;19.744;2023-02-26T15:29:16;6.40;;;2.90;;
50301;SDS011;36550;50.472;19.744;2023-02-26T15:32:05;7.80;;;3.10;;
50301;SDS011;36550;50.472;19.744;2023-02-26T15:35:42;8.90;;;3.50;;
50301;SDS011;36550;50.472;19.744;2023-02-26T15:38:58;10.70;;;4.00;;
50301;SDS011;36550;50.472;19.744;2023-02-26T15:42:23;7.80;;;3.70;;
50301;SDS011;36550;50.472;19.744;2023-02-26T15:45:46;9.90;;;3.30;;
50301;SDS011;36550;50.472;19.744;2023-02-26T15:48:36;6.60;;;3.30;;
50301;SDS011;36550;50.472;19.744;2023-02-26T15:51:24;8.40;;;3.40;;
50301;SDS011;36550;50.472;19.744;2023-02-26T15:54:56;6.70;;;3.10;;
50301;SDS011;36550;50.472;19.744;2023-02-26T15:58:27;7.10;;;3.50;;
50301;SDS011;36550;50.472;19.744;2023-02-26T16:01:17;7.40;;;3.40;;
50301;SDS011;36550;50.472;19.744;2023-02-26T16:04:41;8.20;;;3.10;;
50301;SDS011;36550;50.472;19.744;2023-02-26T16:07:46;6.60;;;3.10;;
50301;SDS011;36550;50.472;19.744;2023-02-26T16:10:32;6.90;;;3.10;;
50301;SDS011;36550;50.472;19.744;2023-02-26T16:13:37;9.30;;;3.50;;
50301;SDS011;36550;50.472;19.744;2023-02-26T16:17:24;6.30;;;3.10;;
50301;SDS011;36550;50.472;19.744;2023-02-26T16:20:40;9.60;;;3.30;;
50301;SDS011;36550;50.472;19.744;2023-02-26T16:23:39;8.90;;;3.10;;
50301;SDS011;36550;50.472;19.744;2023-02-26T16:27:19;8.00;;;3.20;;
50301;SDS011;36550;50.472;19.744;2023-02-26T16:30:43;8.00;;;3.20;;
50301;SDS011;36550;50.472;19.744;2023-02-26T16:38:16;5.40;;;3.00;;
50301;SDS011;36550;50.472;19.744;2023-02-26T16:42:08;6.20;;;2.60;;
50301;SDS011;36550;50.472;19.744;2023-02-26T16:45:50;8.10;;;2.70;;
50301;SDS011;36550;50.472;19.744;2023-02-26T16:48:58;6.30;;;2.60;;
50301;SDS011;36550;50.472;19.744;2023-02-26T16:52:41;5.90;;;2.90;;
50301;SDS011;36550;50.472;19.744;2023-02-26T16:56:32;8.60;;;3.30;;
50301;SDS011;36550;50.472;19.744;2023-02-26T16:59:57;10.40;;;4.30;;
50301;SDS011;36550;50.472;19.744;2023-02-26T17:03:19;11.30;;;3.90;;
50301;SDS011;36550;50.472;19.744;2023-02-26T17:06:42;12.20;;;4.30;;
50301;SDS011;36550;50.472;19.744;2023-02-26T17:10:18;8.60;;;3.50;;
50301;SDS011;36550;50.472;19.744;2023-02-26T17:13:34;8.80;;;3.40;;
50301;SDS011;36550;50.472;19.744;2023-02-26T17:20:37;9.60;;;3.50;;
50301;SDS011;36550;50.472;19.744;2023-02-26T17:24:40;13.60;;;4.00;;
50301;SDS011;36550;50.472;19.744;2023-02-26T17:28:04;13.10;;;4.40;;
50301;SDS011;36550;50.472;19.744;2023-02-26T17:31:28;15.90;;;4.50;;
50301;SDS011;36550;50.472;19.744;2023-02-26T17:35:14;15.60;;;4.70;;
50301;SDS011;36550;50.472;19.744;2023-02-26T17:38:17;13.60;;;3.60;;
50301;SDS011;36550;50.472;19.744;2023-02-26T17:42:01;10.50;;;2.90;;
50301;SDS011;36550;50.472;19.744;2023-02-26T17:45:27;7.60;;;2.70;;
50301;SDS011;36550;50.472;19.744;2023-02-26T17:48:52;6.60;;;2.50;;
50301;SDS011;36550;50.472;19.744;2023-02-26T17:51:38;7.00;;;3.00;;
50301;SDS011;36550;50.472;19.744;2023-02-26T17:55:22;5.10;;;2.20;;
50301;SDS011;36550;50.472;19.744;2023-02-26T17:58:53;6.40;;;2.40;;
50301;SDS011;36550;50.472;19.744;2023-02-26T18:02:22;7.10;;;2.50;;
50301;SDS011;36550;50.472;19.744;2023-02-26T18:06:05;6.20;;;2.40;;
50301;SDS011;36550;50.472;19.744;2023-02-26T18:09:30;7.30;;;2.50;;
50301;SDS011;36550;50.472;19.744;2023-02-26T18:12:55;6.90;;;2.20;;
50301;SDS011;36550;50.472;19.744;2023-02-26T18:16:37;7.20;;;2.70;;
50301;SDS011;36550;50.472;19.744;2023-02-26T18:20:03;6.40;;;2.30;;
50301;SDS011;36550;50.472;19.744;2023-02-26T18:23:08;7.40;;;2.70;;
50301;SDS011;36550;50.472;19.744;2023-02-26T18:26:33;15.00;;;5.00;;
50301;SDS011;36550;50.472;19.744;2023-02-26T18:29:57;15.00;;;4.40;;
50301;SDS011;36550;50.472;19.744;2023-02-26T18:32:47;10.80;;;4.10;;
50301;SDS011;36550;50.472;19.744;2023-02-26T18:35:31;8.00;;;3.20;;
50301;SDS011;36550;50.472;19.744;2023-02-26T18:38:18;14.20;;;4.20;;
50301;SDS011;36550;50.472;19.744;2023-02-26T18:41:03;11.90;;;3.80;;
50301;SDS011;36550;50.472;19.744;2023-02-26T18:44:28;18.30;;;7.30;;
50301;SDS011;36550;50.472;19.744;2023-02-26T18:47:52;16.60;;;5.80;;
50301;SDS011;36550;50.472;19.744;2023-02-26T18:51:17;6.60;;;2.90;;
50301;SDS011;36550;50.472;19.744;2023-02-26T18:54:39;11.00;;;3.80;;
50301;SDS011;36550;50.472;19.744;2023-02-26T18:58:23;9.70;;;3.60;;
50301;SDS011;36550;50.472;19.744;2023-02-26T19:01:28;12.00;;;4.30;;
50301;SDS011;36550;50.472;19.744;2023-02-26T19:05:12;52.30;;;19.60;;
50301;SDS011;36550;50.472;19.744;2023-02-26T19:08:56;320.70;;;86.00;;
50301;SDS011;36550;50.472;19.744;2023-02-26T19:12:03;449.70;;;142.50;;
50301;SDS011;36550;50.472;19.744;2023-02-26T19:15:47;428.20;;;122.10;;
50301;SDS011;36550;50.472;19.744;2023-02-26T19:19:14;371.90;;;112.00;;
50301;SDS011;36550;50.472;19.744;2023-02-26T19:22:58;344.70;;;108.90;;
50301;SDS011;36550;50.472;19.744;2023-02-26T19:26:09;429.90;;;122.20;;
50301;SDS011;36550;50.472;19.744;2023-02-26T19:29:53;459.20;;;136.00;;
50301;SDS011;36550;50.472;19.744;2023-02-26T19:33:02;390.60;;;105.40;;
50301;SDS011;36550;50.472;19.744;2023-02-26T19:36:46;193.40;;;53.70;;
50301;SDS011;36550;50.472;19.744;2023-02-26T19:39:35;137.00;;;44.40;;
50301;SDS011;36550;50.472;19.744;2023-02-26T19:43:05;202.90;;;68.30;;
50301;SDS011;36550;50.472;19.744;2023-02-26T19:46:31;235.00;;;73.60;;
50301;SDS011;36550;50.472;19.744;2023-02-26T19:50:15;316.70;;;94.10;;
50301;SDS011;36550;50.472;19.744;2023-02-26T19:53:01;438.80;;;133.40;;
50301;SDS011;36550;50.472;19.744;2023-02-26T19:56:47;431.00;;;117.00;;
50301;SDS011;36550;50.472;19.744;2023-02-26T20:00:31;409.60;;;114.40;;
50301;SDS011;36550;50.472;19.744;2023-02-26T20:04:15;322.10;;;106.80;;
50301;SDS011;36550;50.472;19.744;2023-02-26T20:07:30;256.20;;;94.50;;
50301;SDS011;36550;50.472;19.744;2023-02-26T20:11:14;253.80;;;89.00;;
50301;SDS011;36550;50.472;19.744;2023-02-26T20:14:38;235.50;;;70.80;;
50301;SDS011;36550;50.472;19.744;2023-02-26T20:18:11;270.60;;;80.70;;
50301;SDS011;36550;50.472;19.744;2023-02-26T20:21:36;377.60;;;107.70;;
50301;SDS011;36550;50.472;19.744;2023-02-26T20:25:19;318.50;;;107.10;;
50301;SDS011;36550;50.472;19.744;2023-02-26T20:29:03;210.80;;;65.90;;
50301;SDS011;36550;50.472;19.744;2023-02-26T20:32:14;169.80;;;52.70;;
50301;SDS011;36550;50.472;19.744;2023-02-26T20:35:21;167.10;;;51.50;;
50301;SDS011;36550;50.472;19.744;2023-02-26T20:38:25;209.40;;;61.80;;
50301;SDS011;36550;50.472;19.744;2023-02-26T20:41:52;231.50;;;78.20;;
50301;SDS011;36550;50.472;19.744;2023-02-26T20:45:24;289.40;;;92.20;;
50301;SDS011;36550;50.472;19.744;2023-02-26T20:49:08;216.50;;;69.60;;
50301;SDS011;36550;50.472;19.744;2023-02-26T20:52:52;208.90;;;71.20;;
50301;SDS011;36550;50.472;19.744;2023-02-26T20:56:16;126.90;;;42.70;;
50301;SDS011;36550;50.472;19.744;2023-02-26T20:59:40;93.30;;;31.40;;
50301;SDS011;36550;50.472;19.744;2023-02-26T21:02:23;81.70;;;29.40;;
50301;SDS011;36550;50.472;19.744;2023-02-26T21:05:48;70.70;;;26.10;;
50301;SDS011;36550;50.472;19.744;2023-02-26T21:09:11;48.20;;;17.60;;
50301;SDS011;36550;50.472;19.744;2023-02-26T21:12:37;32.20;;;10.80;;
50301;SDS011;36550;50.472;19.744;2023-02-26T21:16:01;27.30;;;9.20;;
50301;SDS011;36550;50.472;19.744;2023-02-26T21:19:26;27.50;;;9.80;;
50301;SDS011;36550;50.472;19.744;2023-02-26T21:23:05;24.20;;;9.60;;
50301;SDS011;36550;50.472;19.744;2023-02-26T21:26:29;27.70;;;10.20;;
50301;SDS011;36550;50.472;19.744;2023-02-26T21:29:33;22.40;;;8.80;;
50301;SDS011;36550;50.472;19.744;2023-02-26T21:33:01;24.10;;;8.70;;
50301;SDS011;36550;50.472;19.744;2023-02-26T21:36:25;21.80;;;8.20;;
50301;SDS011;36550;50.472;19.744;2023-02-26T21:39:52;23.30;;;7.30;;
50301;SDS011;36550;50.472;19.744;2023-02-26T21:43:05;24.60;;;8.50;;
50301;SDS011;36550;50.472;19.744;2023-02-26T21:46:49;23.50;;;7.40;;
50301;SDS011;36550;50.472;19.744;2023-02-26T21:50:27;16.70;;;5.80;;
50301;SDS011;36550;50.472;19.744;2023-02-26T21:53:52;16.90;;;5.80;;
50301;SDS011;36550;50.472;19.744;2023-02-26T21:57:17;22.10;;;6.90;;
50301;SDS011;36550;50.472;19.744;2023-02-26T22:01:01;19.10;;;6.00;;
50301;SDS011;36550;50.472;19.744;2023-02-26T22:04:44;15.70;;;5.30;;